Time;durP1;ratioP1;P1;durP2;ratioP2;P2;SDS_P1;SDS_P2;PMS_P1;PMS_P2;Temp;Humidity;BMP_temperature;BMP_pressure;BME280_temperature;BME280_humidity;BME280_pressure;Samples;Min_cycle;Max_cycle;Signal;HPM_P1;HPM_P2
2023/06/25 00:02:19;;;;;;;221.77;212.35;;;;;;;-141.02;100.00;107971.50;5134971;27;20593;-64
2023/06/25 00:04:46;;;;;;;224.48;214.93;;;;;;;-141.02;100.00;107971.50;5135124;27;20193;-65
2023/06/25 00:07:54;;;;;;;234.10;224.13;;;;;;;-141.02;100.00;107971.50;5125736;27;20603;-65
2023/06/25 00:11:02;;;;;;;244.55;234.15;;;;;;;-141.02;100.00;107971.50;5135066;27;20624;-65
2023/06/25 00:13:51;;;;;;;272.00;260.17;;;;;;;-141.02;100.00;107971.50;5135004;27;20631;-65
2023/06/25 00:17:01;;;;;;;274.33;262.33;;;;;;;-141.02;100.00;107971.50;5134959;27;20615;-65
2023/06/25 00:19:56;;;;;;;247.85;237.20;;;;;;;-141.02;100.00;107971.50;5134539;27;20213;-65
2023/06/25 00:22:50;;;;;;;269.40;257.70;;;;;;;-141.02;100.00;107971.50;5134491;27;20196;-65
2023/06/25 00:25:46;;;;;;;268.33;256.75;;;;;;;-141.02;100.00;107971.50;5134434;27;20200;-64
2023/06/25 00:28:13;;;;;;;257.63;246.50;;;;;;;-141.02;100.00;107971.50;5134751;27;20193;-64
2023/06/25 00:31:18;;;;;;;223.40;213.98;;;;;;;-141.02;100.00;107971.50;5134305;27;20228;-64
2023/06/25 00:33:49;;;;;;;198.60;190.20;;;;;;;-141.02;100.00;107971.50;5134272;27;20692;-64
2023/06/25 00:36:16;;;;;;;169.85;162.65;;;;;;;-141.02;100.00;107971.50;5134228;27;20185;-66
2023/06/25 00:38:44;;;;;;;139.07;133.18;;;;;;;-141.02;100.00;107971.50;5134100;27;20311;-66
2023/06/25 00:41:11;;;;;;;120.93;115.82;;;;;;;-141.02;100.00;107971.50;5134125;27;20570;-65
2023/06/25 00:47:01;;;;;;;98.82;94.55;;;;;;;-141.02;100.00;107971.50;5134185;27;20232;-65
2023/06/25 00:50:23;;;;;;;97.82;93.63;;;;;;;-141.02;100.00;107971.50;5133987;27;20257;-64
2023/06/25 00:53:22;;;;;;;118.05;113.07;;;;;;;-141.02;100.00;107971.50;5133907;27;20192;-64
2023/06/25 00:56:27;;;;;;;160.60;153.80;;;;;;;-141.02;100.00;107971.50;5133780;27;20196;-64
2023/06/25 00:59:08;;;;;;;196.52;188.15;;;;;;;-141.02;100.00;107971.50;5090973;28;20197;-64
2023/06/25 01:08:20;;;;;;;250.48;239.60;;;;;;;-141.02;100.00;107971.50;5090684;28;20224;-63
2023/06/25 01:11:37;;;;;;;267.95;256.08;;;;;;;-141.02;100.00;107971.50;5090693;28;20194;-62
2023/06/25 01:14:04;;;;;;;302.00;288.13;;;;;;;-141.02;100.00;107971.50;5090612;28;20604;-62
2023/06/25 01:16:40;;;;;;;301.73;287.98;;;;;;;-141.02;100.00;107971.50;5097883;27;20209;-62
2023/06/25 01:22:31;;;;;;;309.05;294.88;;;;;;;-141.02;100.00;107971.50;5133402;27;20661;-62
2023/06/25 01:29:09;;;;;;;297.77;284.20;;;;;;;-141.02;100.00;107971.50;5133384;27;20199;-62
2023/06/25 01:32:14;;;;;;;293.80;280.67;;;;;;;-141.02;100.00;107971.50;5133238;27;20188;-62
2023/06/25 01:34:41;;;;;;;270.63;258.63;;;;;;;-141.02;100.00;107971.50;5133176;27;20245;-62
2023/06/25 01:37:10;;;;;;;260.73;249.27;;;;;;;-141.02;100.00;107971.50;5133100;27;20644;-62
2023/06/25 01:39:38;;;;;;;234.93;224.88;;;;;;;-141.02;100.00;107971.50;5133111;27;20236;-62
2023/06/25 01:45:27;;;;;;;220.43;210.98;;;;;;;-141.02;100.00;107971.50;5133228;27;20707;-61
2023/06/25 01:51:16;;;;;;;232.43;222.43;;;;;;;-141.02;100.00;107971.50;5133154;27;20240;-61
2023/06/25 01:53:42;;;;;;;219.88;210.48;;;;;;;-141.02;100.00;107971.50;5132950;27;20234;-61
2023/06/25 01:56:11;;;;;;;224.68;215.07;;;;;;;-141.02;100.00;107971.50;5133242;28;20223;-62
2023/06/25 02:01:59;;;;;;;268.92;257.02;;;;;;;-141.02;100.00;107971.50;5132968;28;20229;-61
2023/06/25 02:04:26;;;;;;;280.25;267.80;;;;;;;-141.02;100.00;107971.50;5133194;27;20188;-62
2023/06/25 02:06:53;;;;;;;282.83;270.23;;;;;;;-141.02;100.00;107971.50;5132642;28;20779;-61
2023/06/25 02:10:06;;;;;;;283.88;271.25;;;;;;;-141.02;100.00;107971.50;5133739;28;20193;-61
2023/06/25 02:12:34;;;;;;;245.82;235.10;;;;;;;-141.02;100.00;107971.50;5133137;27;20191;-61
2023/06/25 02:15:12;;;;;;;226.20;216.48;;;;;;;-141.02;100.00;107971.50;5132768;28;20690;-60
2023/06/25 02:21:01;;;;;;;202.85;194.25;;;;;;;-141.02;100.00;107971.50;5137034;27;20176;-61
2023/06/25 02:23:27;;;;;;;209.07;200.13;;;;;;;-141.02;100.00;107971.50;5137142;27;20245;-60
2023/06/25 02:25:54;;;;;;;218.25;208.90;;;;;;;-141.02;100.00;107971.50;5136827;27;20229;-61
2023/06/25 02:28:23;;;;;;;188.20;180.20;;;;;;;-141.02;100.00;107971.50;5136709;27;20224;-61
2023/06/25 02:30:50;;;;;;;174.60;167.15;;;;;;;-141.02;100.00;107971.50;5137499;27;20196;-70
2023/06/25 02:33:17;;;;;;;201.27;192.70;;;;;;;-141.02;100.00;107971.50;5136987;27;20227;-60
2023/06/25 02:35:44;;;;;;;206.48;197.68;;;;;;;-141.02;100.00;107971.50;5136911;27;20296;-61
2023/06/25 02:38:11;;;;;;;219.88;210.45;;;;;;;-141.02;100.00;107971.50;5136780;27;20263;-61
2023/06/25 02:40:38;;;;;;;206.10;197.25;;;;;;;-141.02;100.00;107971.50;5136510;27;20658;-61
2023/06/25 02:43:05;;;;;;;200.30;191.75;;;;;;;-141.02;100.00;107971.50;5136798;27;20243;-61
2023/06/25 02:45:33;;;;;;;186.10;178.20;;;;;;;-141.02;100.00;107971.50;5136509;27;20697;-61
2023/06/25 02:48:00;;;;;;;168.43;161.25;;;;;;;-141.02;100.00;107971.50;5136326;27;20223;-61
2023/06/25 02:50:27;;;;;;;158.55;151.80;;;;;;;-141.02;100.00;107971.50;5136348;27;20224;-61
2023/06/25 02:52:54;;;;;;;151.85;145.43;;;;;;;-141.02;100.00;107971.50;5136560;27;20292;-61
2023/06/25 02:55:21;;;;;;;130.52;124.93;;;;;;;-141.02;100.00;107971.50;5136601;27;20650;-61
2023/06/25 02:57:48;;;;;;;131.93;126.30;;;;;;;-141.02;100.00;107971.50;5136364;27;20251;-61
2023/06/25 03:00:16;;;;;;;126.72;121.32;;;;;;;-141.02;100.00;107971.50;5136150;27;20196;-61
2023/06/25 03:02:44;;;;;;;87.78;83.88;;;;;;;-141.02;100.00;107971.50;5136418;27;20328;-61
2023/06/25 03:05:11;;;;;;;68.30;65.22;;;;;;;-141.02;100.00;107971.50;5136354;27;20218;-61
2023/06/25 03:07:48;;;;;;;85.78;82.00;;;;;;;-141.02;100.00;107971.50;5135755;27;20316;-60
2023/06/25 03:13:37;;;;;;;105.15;100.65;;;;;;;-141.02;100.00;107971.50;5135913;27;20195;-60
2023/06/25 03:16:05;;;;;;;106.95;102.35;;;;;;;-141.02;100.00;107971.50;5136676;27;20312;-61
2023/06/25 03:18:33;;;;;;;91.35;87.35;;;;;;;-141.02;100.00;107971.50;5136090;27;20574;-60
2023/06/25 03:21:00;;;;;;;92.10;88.10;;;;;;;-141.02;100.00;107971.50;5136126;27;20696;-60
2023/06/25 03:23:27;;;;;;;96.70;92.50;;;;;;;-141.02;100.00;107971.50;5135668;27;20283;-60
2023/06/25 03:26:01;;;;;;;82.63;79.00;;;;;;;-141.02;100.00;107971.50;5135753;27;20245;-60
2023/06/25 03:31:51;;;;;;;121.47;116.22;;;;;;;-141.02;100.00;107971.50;5135750;27;20172;-63
2023/06/25 03:34:19;;;;;;;127.75;122.25;;;;;;;-141.02;100.00;107971.50;5135505;27;20254;-65
2023/06/25 03:36:46;;;;;;;126.15;120.75;;;;;;;-141.02;100.00;107971.50;5135461;27;20212;-64
2023/06/25 03:39:13;;;;;;;139.18;133.13;;;;;;;-141.02;100.00;107971.50;5135631;27;20224;-65
2023/06/25 03:41:40;;;;;;;130.88;125.28;;;;;;;-141.02;100.00;107971.50;5135705;27;20265;-66
2023/06/25 03:44:07;;;;;;;88.57;84.68;;;;;;;-141.02;100.00;107971.50;5135606;27;20197;-66
2023/06/25 03:46:34;;;;;;;61.22;58.42;;;;;;;-141.02;100.00;107971.50;5135574;27;20196;-66
2023/06/25 03:49:01;;;;;;;67.88;64.88;;;;;;;-141.02;100.00;107971.50;5135540;27;20192;-76
2023/06/25 03:51:30;;;;;;;85.43;81.72;;;;;;;-141.02;100.00;107971.50;5135187;27;20246;-65
2023/06/25 03:53:57;;;;;;;90.25;86.35;;;;;;;-141.02;100.00;107971.50;5135077;27;20196;-67
2023/06/25 03:56:24;;;;;;;94.88;90.80;;;;;;;-141.02;100.00;107971.50;5135104;27;20193;-65
2023/06/25 03:58:51;;;;;;;107.28;102.68;;;;;;;-141.02;100.00;107971.50;5134912;27;20697;-66
2023/06/25 04:01:18;;;;;;;95.43;91.32;;;;;;;-141.02;100.00;107971.50;5135323;27;20193;-66
2023/06/25 04:03:45;;;;;;;81.63;78.13;;;;;;;-141.02;100.00;107971.50;5135232;27;20253;-67
2023/06/25 04:06:12;;;;;;;93.40;89.35;;;;;;;-141.02;100.00;107971.50;5134791;27;20666;-66
2023/06/25 04:08:41;;;;;;;73.07;69.88;;;;;;;-141.02;100.00;107971.50;5134725;27;20655;-65
2023/06/25 04:11:08;;;;;;;67.28;64.28;;;;;;;-141.02;100.00;107971.50;5135057;27;20719;-66
2023/06/25 04:13:35;;;;;;;76.30;73.00;;;;;;;-141.02;100.00;107971.50;5135115;27;20553;-66
2023/06/25 04:16:02;;;;;;;86.55;82.85;;;;;;;-141.02;100.00;107971.50;5134970;27;20658;-67
2023/06/25 04:18:29;;;;;;;86.25;82.55;;;;;;;-141.02;100.00;107971.50;5134514;27;20224;-68
2023/06/25 04:20:56;;;;;;;114.10;109.30;;;;;;;-141.02;100.00;107971.50;5134560;27;20662;-67
2023/06/25 04:23:24;;;;;;;137.27;131.48;;;;;;;-141.02;100.00;107971.50;5134781;27;20257;-67
2023/06/25 04:25:53;;;;;;;140.45;134.48;;;;;;;-141.02;100.00;107971.50;5134793;27;20253;-66
2023/06/25 04:28:20;;;;;;;167.10;160.02;;;;;;;-141.02;100.00;107971.50;5134678;27;20204;-66
2023/06/25 04:30:47;;;;;;;178.45;170.93;;;;;;;-141.02;100.00;107971.50;5134417;27;20205;-66
2023/06/25 04:33:14;;;;;;;166.68;159.63;;;;;;;-141.02;100.00;107971.50;5134642;27;20564;-66
2023/06/25 04:35:41;;;;;;;184.68;176.90;;;;;;;-141.02;100.00;107971.50;5134223;27;20192;-66
2023/06/25 04:38:08;;;;;;;184.23;176.48;;;;;;;-141.02;100.00;107971.50;5134483;27;20220;-65
2023/06/25 04:40:35;;;;;;;177.20;169.77;;;;;;;-141.02;100.00;107971.50;5133628;27;20196;-65
2023/06/25 04:43:04;;;;;;;206.50;197.82;;;;;;;-141.02;100.00;107971.50;5134159;27;20658;-71
2023/06/25 04:45:31;;;;;;;222.25;212.88;;;;;;;-141.02;100.00;107971.50;5134318;27;20197;-64
2023/06/25 04:47:58;;;;;;;210.10;201.25;;;;;;;-141.02;100.00;107971.50;5133966;27;20193;-64
2023/06/25 04:50:25;;;;;;;195.23;187.00;;;;;;;-141.02;100.00;107971.50;5134304;27;20223;-64
2023/06/25 04:52:54;;;;;;;106.22;101.72;;;;;;;-141.02;100.00;107971.50;5134180;27;20253;-64
2023/06/25 04:55:21;;;;;;;88.38;84.57;;;;;;;-141.02;100.00;107971.50;5134190;27;20200;-63
2023/06/25 04:57:48;;;;;;;60.88;58.17;;;;;;;-141.02;100.00;107971.50;5133774;27;20193;-63
2023/06/25 05:00:17;;;;;;;45.13;43.22;;;;;;;-141.02;100.00;107971.50;5134124;27;20251;-63
2023/06/25 05:02:44;;;;;;;37.97;36.38;;;;;;;-141.02;100.00;107971.50;5134037;27;20275;-63
2023/06/25 05:05:11;;;;;;;35.78;34.28;;;;;;;-141.02;100.00;107971.50;5133648;27;20189;-63
2023/06/25 05:07:38;;;;;;;31.80;30.50;;;;;;;-141.02;100.00;107971.50;5133471;27;20264;-63
2023/06/25 05:10:06;;;;;;;26.92;25.83;;;;;;;-141.02;100.00;107971.50;5133995;27;20273;-72
2023/06/25 05:12:33;;;;;;;19.52;18.83;;;;;;;-141.02;100.00;107971.50;5133593;27;20692;-63
2023/06/25 05:15:01;;;;;;;17.67;17.08;;;;;;;-141.02;100.00;107971.50;5133506;27;20196;-62
2023/06/25 05:17:30;;;;;;;16.08;15.57;;;;;;;-141.02;100.00;107971.50;5133786;27;20189;-62
2023/06/25 05:19:57;;;;;;;16.00;15.50;;;;;;;-141.02;100.00;107971.50;5133433;27;20235;-62
2023/06/25 05:22:24;;;;;;;15.48;14.98;;;;;;;-141.02;100.00;107971.50;5133712;27;20203;-61
2023/06/25 05:24:51;;;;;;;15.70;15.20;;;;;;;-141.02;100.00;107971.50;5133704;27;20266;-61
2023/06/25 05:27:18;;;;;;;15.77;15.27;;;;;;;-141.02;100.00;107971.50;5133628;27;20192;-61
2023/06/25 05:29:45;;;;;;;15.00;14.50;;;;;;;-141.02;100.00;107971.50;5133664;27;20245;-61
2023/06/25 05:32:12;;;;;;;14.80;14.30;;;;;;;-141.02;100.00;107971.50;5133661;27;20201;-61
2023/06/25 05:34:40;;;;;;;14.52;14.13;;;;;;;-141.02;100.00;107971.50;5133234;27;20277;-61
2023/06/25 05:37:07;;;;;;;14.85;14.35;;;;;;;-141.02;100.00;107971.50;5133250;27;20200;-61
2023/06/25 05:39:34;;;;;;;14.30;13.80;;;;;;;-141.02;100.00;107971.50;5133121;27;20228;-61
2023/06/25 05:42:01;;;;;;;16.45;15.85;;;;;;;-141.02;100.00;107971.50;5133131;27;20746;-60
2023/06/25 05:44:28;;;;;;;16.75;16.15;;;;;;;-141.02;100.00;107971.50;5133130;27;20192;-60
2023/06/25 05:46:55;;;;;;;16.77;16.17;;;;;;;-141.02;100.00;107971.50;5133048;27;20577;-60
2023/06/25 05:49:22;;;;;;;16.80;16.20;;;;;;;-141.02;100.00;107971.50;5133061;27;20682;-60
2023/06/25 05:51:52;;;;;;;16.27;15.68;;;;;;;-141.02;100.00;107971.50;5132783;27;20310;-59
2023/06/25 05:54:19;;;;;;;15.18;14.68;;;;;;;-141.02;100.00;107971.50;5133321;27;20192;-60
2023/06/25 05:56:46;;;;;;;12.95;12.55;;;;;;;-141.02;100.00;107971.50;5133044;27;20214;-60
2023/06/25 05:59:13;;;;;;;12.70;12.30;;;;;;;-141.02;100.00;107971.50;5133133;28;20681;-59
2023/06/25 06:01:40;;;;;;;12.10;11.70;;;;;;;-141.02;100.00;107971.50;5132967;27;20245;-59
2023/06/25 06:04:07;;;;;;;10.13;9.82;;;;;;;-141.02;100.00;107971.50;5132940;27;20245;-63
2023/06/25 06:06:34;;;;;;;8.73;8.52;;;;;;;-141.02;100.00;107971.50;5133127;27;20200;-59
2023/06/25 06:09:02;;;;;;;8.75;8.55;;;;;;;-141.02;100.00;107971.50;5132807;28;20223;-59
2023/06/25 06:11:30;;;;;;;8.90;8.70;;;;;;;-141.02;100.00;107971.50;5133110;28;20208;-59
2023/06/25 06:13:56;;;;;;;9.50;9.20;;;;;;;-141.02;100.00;107971.50;5133158;27;20269;-58
2023/06/25 06:16:23;;;;;;;9.43;9.13;;;;;;;-141.02;100.00;107971.50;5132907;27;20653;-58
2023/06/25 06:18:51;;;;;;;10.02;9.73;;;;;;;-141.02;100.00;107971.50;5132828;27;20227;-58
2023/06/25 06:21:18;;;;;;;10.10;9.80;;;;;;;-141.02;100.00;107971.50;5132678;28;20201;-58
2023/06/25 06:23:45;;;;;;;10.38;10.07;;;;;;;-141.02;100.00;107971.50;5133084;27;20253;-58
2023/06/25 06:26:13;;;;;;;10.98;10.57;;;;;;;-141.02;100.00;107971.50;5132694;28;20196;-58
2023/06/25 06:28:40;;;;;;;11.35;10.95;;;;;;;-141.02;100.00;107971.50;5133062;27;20197;-57
2023/06/25 06:31:08;;;;;;;12.73;12.23;;;;;;;-141.02;100.00;107971.50;5133041;28;20228;-58
2023/06/25 06:33:35;;;;;;;14.30;13.75;;;;;;;-141.02;100.00;107971.50;5132954;27;20245;-58
2023/06/25 06:36:02;;;;;;;15.40;14.70;;;;;;;-141.02;100.00;107971.50;5132616;28;20207;-58
2023/06/25 06:38:29;;;;;;;16.55;15.65;;;;;;;-141.02;100.00;107971.50;5132491;28;20662;-58
2023/06/25 06:40:57;;;;;;;17.60;16.60;;;;;;;-141.02;100.00;107971.50;5132964;27;20250;-58
2023/06/25 06:43:26;;;;;;;18.92;17.83;;;;;;;-141.02;100.00;107971.50;5133759;27;20207;-58
2023/06/25 06:45:53;;;;;;;21.60;20.30;;;;;;;-141.02;100.00;107971.50;5132766;28;20257;-58
2023/06/25 06:48:20;;;;;;;22.38;21.08;;;;;;;-141.02;100.00;107971.50;5132853;28;20223;-58
2023/06/25 06:50:47;;;;;;;22.88;21.58;;;;;;;-141.02;100.00;107971.50;5132693;28;20248;-58
2023/06/25 06:53:14;;;;;;;21.58;20.38;;;;;;;-141.02;100.00;107971.50;5132438;28;20192;-58
2023/06/25 06:55:41;;;;;;;18.27;17.38;;;;;;;-141.02;100.00;107971.50;5132410;28;20197;-58
2023/06/25 06:58:08;;;;;;;19.88;18.88;;;;;;;-141.02;100.00;107971.50;5133520;28;20205;-58
2023/06/25 07:00:37;;;;;;;17.20;16.40;;;;;;;-141.02;100.00;107971.50;5132300;28;20224;-58
2023/06/25 07:03:04;;;;;;;17.63;16.83;;;;;;;-141.02;100.00;107971.50;5133422;27;20189;-58
2023/06/25 07:05:31;;;;;;;17.15;16.45;;;;;;;-141.02;100.00;107971.50;5136466;27;20268;-58
2023/06/25 07:07:58;;;;;;;19.10;18.20;;;;;;;-141.02;100.00;107971.50;5135978;27;20228;-58
2023/06/25 07:10:24;;;;;;;16.40;15.70;;;;;;;-141.02;100.00;107971.50;5136062;27;20200;-58
2023/06/25 07:12:51;;;;;;;16.98;16.17;;;;;;;-141.02;100.00;107971.50;5136019;27;20192;-58
2023/06/25 07:15:18;;;;;;;17.30;16.50;;;;;;;-141.02;100.00;107971.50;5136183;27;20204;-58
2023/06/25 07:17:47;;;;;;;18.63;17.73;;;;;;;-141.02;100.00;107971.50;5136204;27;20202;-58
2023/06/25 07:20:14;;;;;;;17.77;16.88;;;;;;;-141.02;100.00;107971.50;5135728;27;20270;-58
2023/06/25 07:22:41;;;;;;;17.52;16.63;;;;;;;-141.02;100.00;107971.50;5135809;27;20223;-58
2023/06/25 07:25:09;;;;;;;18.70;17.70;;;;;;;-141.02;100.00;107971.50;5135717;27;20192;-58
2023/06/25 07:27:36;;;;;;;16.42;15.63;;;;;;;-141.02;100.00;107971.50;5135709;27;20236;-58
2023/06/25 07:30:03;;;;;;;16.55;15.75;;;;;;;-141.02;100.00;107971.50;5135907;27;20603;-58
2023/06/25 07:32:30;;;;;;;18.85;17.60;;;;;;;-141.02;100.00;107971.50;5135808;27;20199;-58
2023/06/25 07:34:59;;;;;;;19.88;18.67;;;;;;;-141.02;100.00;107971.50;5135571;27;20677;-58
2023/06/25 07:37:26;;;;;;;18.30;17.30;;;;;;;-141.02;100.00;107971.50;5135429;27;20228;-58
2023/06/25 07:39:53;;;;;;;17.70;16.80;;;;;;;-141.02;100.00;107971.50;5135681;27;20263;-58
2023/06/25 07:42:20;;;;;;;16.67;15.77;;;;;;;-141.02;100.00;107971.50;5135374;27;20235;-58
2023/06/25 07:44:47;;;;;;;17.50;16.50;;;;;;;-141.02;100.00;107971.50;5135588;27;20188;-58
2023/06/25 07:47:14;;;;;;;18.00;16.90;;;;;;;-141.02;100.00;107971.50;5135557;27;20192;-58
2023/06/25 07:49:40;;;;;;;17.77;16.48;;;;;;;-141.02;100.00;107969.53;5135541;27;20252;-58
2023/06/25 07:52:09;;;;;;;19.20;17.80;;;;;;;-141.02;100.00;107719.09;5135253;27;20196;-58
2023/06/25 07:54:36;;;;;;;19.35;17.95;;;;;;;-141.02;100.00;107719.09;5135446;27;20199;-58
2023/06/25 07:57:03;;;;;;;20.35;18.75;;;;;;;-141.02;100.00;106967.91;5135080;27;20192;-58
2023/06/25 07:59:30;;;;;;;19.27;17.88;;;;;;;-141.02;100.00;106967.91;5135325;27;20235;-58
2023/06/25 08:01:57;;;;;;;21.23;19.42;;;;;;;-141.02;100.00;104715.34;5134971;27;20193;-58
2023/06/25 08:04:24;;;;;;;20.30;18.80;;;;;;;-141.02;100.00;104465.16;5135274;27;20223;-58
2023/06/25 08:06:51;;;;;;;19.50;18.10;;;;;;;-141.02;100.00;105716.31;5134777;27;20233;-58
2023/06/25 08:09:20;;;;;;;19.05;17.65;;;;;;;-141.02;100.00;103964.81;5135191;27;20257;-58
2023/06/25 08:11:47;;;;;;;18.20;16.95;;;;;;;-141.02;100.00;104965.56;5134772;27;20192;-58
2023/06/25 08:14:14;;;;;;;18.80;17.50;;;;;;;-141.02;100.00;104465.16;5134769;27;20193;-58
2023/06/25 08:16:41;;;;;;;18.25;16.95;;;;;;;-141.02;100.00;103714.66;5134712;27;20224;-58
2023/06/25 08:19:08;;;;;;;18.17;16.98;;;;;;;-141.02;100.00;103964.81;5134800;27;20193;-58
2023/06/25 08:21:35;;;;;;;16.48;15.48;;;;;;;-141.02;100.00;105966.59;5134639;27;20224;-58
2023/06/25 08:24:02;;;;;;;18.55;17.35;;;;;;;-141.02;100.00;104715.34;5134823;27;20256;-58
2023/06/25 08:26:30;;;;;;;19.00;17.50;;;;;;;-141.02;100.00;104965.56;5134547;27;20245;-58
2023/06/25 08:28:57;;;;;;;19.05;17.55;;;;;;;-141.02;100.00;104715.34;5134812;27;20224;-58
2023/06/25 08:31:24;;;;;;;20.10;18.40;;;;;;;-141.02;100.00;103714.66;5134635;27;20196;-58
2023/06/25 08:33:51;;;;;;;20.30;18.60;;;;;;;-141.02;100.00;102714.25;5134402;27;20751;-58
2023/06/25 08:36:18;;;;;;;19.38;17.83;;;;;;;-141.02;100.00;102214.16;5134642;27;20218;-58
2023/06/25 08:38:45;;;;;;;18.98;17.38;;;;;;;-141.02;100.00;102464.22;5134550;27;20192;-58
2023/06/25 08:41:12;;;;;;;18.55;16.95;;;;;;;-141.02;100.00;101714.16;5134182;27;20220;-58
2023/06/25 08:43:41;;;;;;;18.92;17.33;;;;;;;-141.02;100.00;102214.16;5134456;27;20224;-58
2023/06/25 08:46:09;;;;;;;16.48;15.38;;;;;;;-141.02;100.00;103964.81;5134095;27;20228;-58
2023/06/25 08:48:37;;;;;;;17.70;16.50;;;;;;;-141.02;100.00;102964.34;5134034;27;20196;-58
2023/06/25 08:51:09;;;;;;;19.73;18.23;;;;;;;-141.02;100.00;102964.34;5134088;27;20761;-58
2023/06/25 08:53:37;;;;;;;19.45;17.85;;;;;;;-141.02;100.00;102464.22;5134031;27;20241;-58
2023/06/25 08:56:06;;;;;;;22.67;20.58;;;;;;;-141.02;99.65;100714.34;5134551;27;20193;-58
2023/06/25 08:58:35;;;;;;;20.60;18.80;;;;;;;-141.02;100.00;101714.16;5134224;27;20239;-58
2023/06/25 09:01:03;;;;;;;21.05;19.15;;;;;;;-141.02;99.98;102214.16;5134014;27;20227;-58
2023/06/25 09:03:30;;;;;;;22.60;20.35;;;;;;;-141.02;92.34;101714.16;5134152;27;20254;-58
2023/06/25 09:05:58;;;;;;;24.88;22.30;;;;;;;-141.02;80.65;99964.66;5134089;27;20254;-58
2023/06/25 09:08:26;;;;;;;26.88;23.98;;;;;;;-141.02;83.15;98465.78;5133644;27;20301;-59
2023/06/25 09:10:54;;;;;;;24.85;22.25;;;;;;;-141.02;85.34;97966.31;5133702;27;20192;-59
2023/06/25 09:13:22;;;;;;;23.50;21.20;;;;;;;-141.02;97.32;99964.66;5133632;27;20192;-58
2023/06/25 09:15:49;;;;;;;23.30;20.85;;;;;;;-141.02;90.00;98965.34;5133600;27;20189;-59
2023/06/25 09:18:20;;;;;;;22.30;20.10;;;;;;;-141.02;94.51;99464.97;5133847;27;20287;-58
2023/06/25 09:20:48;;;;;;;25.90;23.20;;;;;;;-141.02;87.47;97966.31;5133464;27;20220;-58
2023/06/25 09:23:20;;;;;;;23.30;20.90;;;;;;;-141.02;94.15;98216.03;5133487;27;20194;-58
2023/06/25 09:25:47;;;;;;;23.35;20.98;;;;;;;-141.02;93.45;97466.91;5133015;27;20654;-58
2023/06/25 09:28:14;;;;;;;23.77;21.38;;;;;;;-141.02;95.18;97466.91;5133346;27;20192;-59
2023/06/25 09:30:41;;;;;;;21.27;19.27;;;;;;;-141.02;99.10;97716.59;5133297;27;20192;-58
2023/06/25 09:33:08;;;;;;;21.45;19.35;;;;;;;-141.02;99.39;96967.56;5133360;27;20241;-59
2023/06/25 09:35:40;;;;;;;21.90;19.80;;;;;;;-141.02;96.78;96717.94;5133197;27;20220;-58
2023/06/25 09:38:08;;;;;;;21.13;19.13;;;;;;;-141.02;96.61;96717.94;5133278;27;20210;-58
2023/06/25 09:40:35;;;;;;;25.88;23.35;;;;;;;-141.02;99.09;98216.03;5133431;27;20663;-81
2023/06/25 09:43:05;;;;;;;21.88;19.75;;;;;;;-141.02;95.12;97466.91;5133155;27;20196;-65
2023/06/25 09:45:33;;;;;;;24.23;21.73;;;;;;;-141.02;91.30;97466.91;5133403;27;20262;-58
2023/06/25 09:48:02;;;;;;;24.50;21.90;;;;;;;-141.02;85.62;96468.31;5133119;27;20192;-58
2023/06/25 09:50:35;;;;;;;25.45;22.75;;;;;;;-141.02;90.23;97466.91;5133148;27;20224;-62
2023/06/25 09:53:07;;;;;;;27.15;24.05;;;;;;;-141.02;86.32;97466.91;5133154;27;20188;-59
2023/06/25 09:55:37;;;;;;;27.88;24.98;;;;;;;-141.02;91.74;98965.34;5133360;27;20191;-59
2023/06/25 09:58:05;;;;;;;26.95;24.05;;;;;;;-141.02;86.40;99215.16;5132918;27;20624;-60
2023/06/25 10:00:33;;;;;;;28.95;24.80;;;;;;;-141.02;76.32;95969.13;5132897;27;20228;-61
2023/06/25 10:03:00;;;;;;;28.45;24.40;;;;;;;-141.02;80.40;96967.56;5132913;28;20192;-59
2023/06/25 10:05:28;;;;;;;28.77;25.60;;;;;;;-141.02;80.57;94222.50;5133207;28;20236;-59
2023/06/25 10:07:55;;;;;;;29.35;26.25;;;;;;;-141.02;80.86;94471.97;5132831;27;20718;-59
2023/06/25 10:10:27;;;;;;;29.90;26.80;;;;;;;-141.02;83.72;93973.06;5133194;27;20279;-59
2023/06/25 10:12:54;;;;;;;30.08;27.08;;;;;;;-141.02;84.59;92975.47;5132902;27;20228;-59
2023/06/25 10:15:35;;;;;;;27.80;25.00;;;;;;;-141.02;86.33;93973.06;5132785;27;20224;-59
2023/06/25 10:18:07;;;;;;;27.95;25.25;;;;;;;-141.02;87.87;95220.47;5132790;28;20196;-59
2023/06/25 10:20:36;;;;;;;27.60;24.70;;;;;;;-141.02;87.50;95719.53;5133005;28;20255;-59
2023/06/25 10:23:06;;;;;;;29.33;26.23;;;;;;;-141.02;84.10;95969.13;5132775;28;20200;-59
2023/06/25 10:25:39;;;;;;;26.98;24.17;;;;;;;-141.02;86.03;96967.56;5133066;27;20184;-60
2023/06/25 10:28:08;;;;;;;27.85;24.95;;;;;;;-141.02;81.24;96468.31;5133052;28;20185;-60
2023/06/25 10:30:40;;;;;;;28.25;25.25;;;;;;;-141.02;80.19;96218.69;5132650;27;20192;-60
2023/06/25 10:33:08;;;;;;;26.85;24.05;;;;;;;-141.02;81.48;96468.31;5133042;27;20650;-59
2023/06/25 10:35:41;;;;;;;28.50;25.50;;;;;;;-141.02;76.77;94222.50;5132609;27;20193;-60
2023/06/25 10:38:09;;;;;;;28.35;25.45;;;;;;;-141.02;77.38;94222.50;5133609;27;20539;-61
2023/06/25 10:40:40;;;;;;;29.85;26.85;;;;;;;-141.02;79.57;92476.78;5136471;27;20232;-59
2023/06/25 10:43:07;;;;;;;28.70;25.65;;;;;;;-141.02;78.50;92227.47;5136961;27;20634;-60
2023/06/25 10:45:34;;;;;;;29.75;26.75;;;;;;;-141.02;83.33;92726.13;5136474;27;20658;-60
2023/06/25 10:48:06;;;;;;;28.98;26.27;;;;;;;-141.02;85.88;93723.63;5136828;27;20196;-60
2023/06/25 10:50:34;;;;;;;26.92;24.25;;;;;;;-141.02;85.24;94222.50;5136462;27;20224;-60
2023/06/25 10:53:01;;;;;;;28.40;25.60;;;;;;;-141.02;84.47;93723.63;5136765;27;20200;-60
2023/06/25 10:55:29;;;;;;;29.38;26.38;;;;;;;-141.02;81.57;93474.22;5136200;27;20288;-71
2023/06/25 10:57:57;;;;;;;29.67;26.88;;;;;;;-141.02;84.32;94471.97;5136505;27;20277;-61
2023/06/25 11:00:25;;;;;;;29.50;26.70;;;;;;;-141.02;87.15;92975.47;5136102;27;20220;-59
2023/06/25 11:02:53;;;;;;;29.70;26.90;;;;;;;-141.02;88.32;92726.13;5136527;27;20261;-64
2023/06/25 11:05:20;;;;;;;27.98;25.38;;;;;;;-141.02;93.31;94222.50;5136490;27;20192;-59
2023/06/25 11:07:54;;;;;;;28.40;25.70;;;;;;;-141.02;93.20;94970.94;5136057;27;20229;-59
2023/06/25 11:10:24;;;;;;;32.25;29.25;;;;;;;-141.02;85.08;91978.16;5136389;27;20245;-66
2023/06/25 11:12:51;;;;;;;28.00;25.40;;;;;;;-141.02;87.86;92726.13;5135976;27;20193;-60
2023/06/25 11:15:22;;;;;;;28.48;25.67;;;;;;;-141.02;90.95;93474.22;5136254;27;20228;-59
2023/06/25 11:17:51;;;;;;;30.85;27.85;;;;;;;-141.02;85.96;94222.50;5136285;27;20191;-59
2023/06/25 11:20:18;;;;;;;30.85;27.85;;;;;;;-141.02;83.13;94471.97;5135712;27;20709;-60
2023/06/25 11:22:46;;;;;;;29.88;27.05;;;;;;;-141.02;83.22;94721.44;5136106;27;20231;-59
2023/06/25 11:25:13;;;;;;;31.80;28.70;;;;;;;-141.02;83.22;94721.44;5136049;27;20277;-59
2023/06/25 11:27:41;;;;;;;30.50;27.60;;;;;;;-141.02;84.61;93224.84;5135678;27;20684;-59
2023/06/25 11:30:09;;;;;;;31.08;28.08;;;;;;;-141.02;84.21;94471.97;5135950;27;20237;-60
2023/06/25 11:32:39;;;;;;;27.50;24.90;;;;;;;-141.02;83.64;94970.94;5135659;27;20192;-59
2023/06/25 11:35:11;;;;;;;28.10;25.25;;;;;;;-141.02;81.25;95220.47;5135863;27;20193;-59
2023/06/25 11:37:45;;;;;;;31.98;28.77;;;;;;;-141.02;76.90;94721.44;5135757;27;20223;-59